Time;durP1;ratioP1;P1;durP2;ratioP2;P2;SDS_P1;SDS_P2;PMS_P1;PMS_P2;Temp;Humidity;BMP_temperature;BMP_pressure;BME280_temperature;BME280_humidity;BME280_pressure;Samples;Min_cycle;Max_cycle;Signal;HPM_P1;HPM_P2
2023/06/22 00:01:58;;;;;;;4.95;3.70;;;;;;;18.69;100.00;101733.31;5007697;28;20462;-61
2023/06/22 00:04:24;;;;;;;6.03;4.10;;;;;;;18.66;100.00;101728.03;5007119;28;20026;-61
2023/06/22 00:06:49;;;;;;;5.55;3.88;;;;;;;18.61;100.00;101719.22;5007310;28;20044;-61
2023/06/22 00:09:14;;;;;;;5.95;3.83;;;;;;;18.58;100.00;101717.44;5006962;28;20409;-62
2023/06/22 00:11:40;;;;;;;7.35;3.78;;;;;;;18.55;100.00;101725.25;5007469;28;20383;-60
2023/06/22 00:14:05;;;;;;;3.88;3.53;;;;;;;18.52;100.00;101734.84;5007376;28;20048;-61
2023/06/22 00:16:31;;;;;;;5.43;4.40;;;;;;;18.44;100.00;101725.13;5007295;28;20033;-62
2023/06/22 00:19:00;;;;;;;6.45;4.03;;;;;;;18.37;100.00;101720.66;5007248;28;20382;-60
2023/06/22 00:21:28;;;;;;;4.97;4.47;;;;;;;18.30;100.00;101731.91;5007211;28;20508;-61
2023/06/22 00:23:53;;;;;;;5.45;4.55;;;;;;;18.23;100.00;101729.22;5007100;28;20057;-60
2023/06/22 00:26:20;;;;;;;4.43;3.85;;;;;;;18.16;100.00;101731.72;5006855;28;20026;-60
2023/06/22 00:28:46;;;;;;;6.38;4.72;;;;;;;18.11;100.00;101729.88;5007593;28;20034;-62
2023/06/22 00:31:11;;;;;;;5.60;4.95;;;;;;;18.07;100.00;101727.22;5007051;28;20089;-64
2023/06/22 00:33:36;;;;;;;6.70;4.90;;;;;;;18.05;100.00;101731.53;5007356;28;20041;-63
2023/06/22 00:36:02;;;;;;;5.90;5.30;;;;;;;18.00;100.00;101734.09;5006825;28;20029;-60
2023/06/22 00:38:28;;;;;;;8.35;5.60;;;;;;;17.98;100.00;101731.47;5007128;28;20040;-61
2023/06/22 00:40:53;;;;;;;6.30;5.65;;;;;;;17.96;100.00;101727.94;5007056;28;20041;-60
2023/06/22 00:43:19;;;;;;;5.15;4.65;;;;;;;17.99;100.00;101727.97;5007103;28;20466;-60
2023/06/22 00:45:45;;;;;;;5.38;4.43;;;;;;;18.00;100.00;101721.00;5006876;28;20393;-60
2023/06/22 00:48:12;;;;;;;7.97;4.90;;;;;;;18.00;100.00;101719.25;5007472;28;20033;-63
2023/06/22 00:50:37;;;;;;;6.75;5.40;;;;;;;18.00;100.00;101719.25;5009086;28;20036;-62
2023/06/22 00:53:09;;;;;;;6.93;4.82;;;;;;;17.97;100.00;101724.44;5010912;28;20370;-62
2023/06/22 00:55:43;;;;;;;5.43;4.93;;;;;;;17.97;100.00;101716.56;5010713;28;20278;-62
2023/06/22 00:58:10;;;;;;;5.38;4.85;;;;;;;17.98;100.00;101723.59;5010641;28;20036;-62
2023/06/22 01:00:36;;;;;;;5.88;5.25;;;;;;;17.97;100.00;101727.06;5010289;28;20393;-63
2023/06/22 01:03:03;;;;;;;7.35;5.18;;;;;;;17.93;100.00;101711.28;5010662;28;20045;-63
2023/06/22 01:05:31;;;;;;;5.30;4.80;;;;;;;17.92;100.00;101713.00;5010433;28;20046;-62
2023/06/22 01:08:27;;;;;;;6.30;5.70;;;;;;;17.94;100.00;101708.66;5011224;28;20121;-63
2023/06/22 01:11:10;;;;;;;5.47;5.07;;;;;;;17.93;100.00;101712.16;5010525;28;20092;-62
2023/06/22 01:13:48;;;;;;;9.20;7.13;;;;;;;17.87;100.00;101712.94;5009377;28;20041;-62
2023/06/22 01:16:23;;;;;;;8.93;7.00;;;;;;;17.81;100.00;101717.22;5010358;28;20045;-63
2023/06/22 01:18:51;;;;;;;7.70;7.10;;;;;;;17.77;100.00;101708.41;5010623;28;20462;-61
2023/06/22 01:21:20;;;;;;;7.38;6.68;;;;;;;17.73;100.00;101714.47;5009743;28;20033;-62
2023/06/22 01:24:26;;;;;;;8.35;7.55;;;;;;;17.72;100.00;101721.44;5010091;28;20112;-63
2023/06/22 01:27:28;;;;;;;8.20;7.50;;;;;;;17.68;100.00;101706.53;5009702;28;20072;-62
2023/06/22 01:30:03;;;;;;;8.45;7.63;;;;;;;17.67;100.00;101715.25;5009170;28;20053;-61
2023/06/22 01:32:35;;;;;;;8.30;7.55;;;;;;;17.63;100.00;101726.50;5009800;28;20140;-61
2023/06/22 01:35:04;;;;;;;8.95;8.02;;;;;;;17.64;100.00;101713.47;5009361;28;20034;-62
2023/06/22 01:37:32;;;;;;;9.18;8.15;;;;;;;17.66;100.00;101717.84;5009716;28;20029;-61
2023/06/22 01:39:58;;;;;;;9.20;8.40;;;;;;;17.69;100.00;101718.78;5009902;28;20017;-61
2023/06/22 01:42:27;;;;;;;9.15;8.23;;;;;;;17.73;100.00;101709.22;5009753;28;20042;-61
2023/06/22 01:44:53;;;;;;;7.90;7.20;;;;;;;17.75;100.00;101713.63;5010142;28;20378;-61
2023/06/22 01:47:20;;;;;;;8.98;8.27;;;;;;;17.76;100.00;101707.53;5009477;28;20037;-62
2023/06/22 01:49:46;;;;;;;8.98;8.07;;;;;;;17.79;100.00;101708.44;5009105;28;20536;-61
2023/06/22 01:52:11;;;;;;;9.98;8.98;;;;;;;17.81;100.00;101696.25;5009207;28;20301;-61
2023/06/22 01:54:38;;;;;;;9.27;8.48;;;;;;;17.83;100.00;101702.38;5009337;28;20464;-60
2023/06/22 01:57:04;;;;;;;8.77;7.78;;;;;;;17.84;100.00;101701.53;5009241;28;20101;-61
2023/06/22 01:59:40;;;;;;;9.98;8.95;;;;;;;17.83;100.00;101700.63;5009300;28;20105;-61
2023/06/22 02:02:13;;;;;;;10.50;9.25;;;;;;;17.86;100.00;101702.44;5009175;28;20025;-61
2023/06/22 02:04:47;;;;;;;9.25;8.40;;;;;;;17.87;100.00;101701.56;5008882;28;20169;-61
2023/06/22 02:07:16;;;;;;;10.65;9.65;;;;;;;17.84;100.00;101696.28;5009143;28;20046;-61
2023/06/22 02:09:45;;;;;;;9.55;8.75;;;;;;;17.79;100.00;101698.81;5009018;28;20029;-61
2023/06/22 02:12:18;;;;;;;9.90;9.10;;;;;;;17.76;100.00;101704.91;5008949;28;20033;-62
2023/06/22 02:14:46;;;;;;;9.48;8.68;;;;;;;17.74;100.00;101705.72;5008825;28;20034;-61
2023/06/22 02:17:12;;;;;;;10.45;9.55;;;;;;;17.71;100.00;101703.06;4996233;28;20405;-62
2023/06/22 02:19:38;;;;;;;11.48;8.68;;;;;;;17.64;100.00;101702.09;5008911;28;20034;-62
2023/06/22 02:22:04;;;;;;;10.52;9.55;;;;;;;17.58;100.00;101704.59;4996977;28;20108;-61
2023/06/22 02:24:31;;;;;;;10.93;9.93;;;;;;;17.52;100.00;101706.25;5008426;28;20163;-61
2023/06/22 02:27:00;;;;;;;10.75;9.75;;;;;;;17.46;100.00;101706.19;4997441;28;20034;-61
2023/06/22 02:29:27;;;;;;;12.00;10.55;;;;;;;17.43;100.00;101694.75;5008751;28;20033;-62
2023/06/22 02:31:53;;;;;;;10.77;9.77;;;;;;;17.40;100.00;101696.47;5008740;28;20504;-62
2023/06/22 02:34:18;;;;;;;10.52;9.63;;;;;;;17.39;100.00;101679.00;5008800;28;20037;-62
2023/06/22 02:36:53;;;;;;;9.38;8.45;;;;;;;17.39;100.00;101685.97;5008513;28;20029;-61
2023/06/22 02:39:22;;;;;;;8.98;8.13;;;;;;;17.40;100.00;101674.63;5008883;28;20056;-61
2023/06/22 02:41:49;;;;;;;9.07;8.18;;;;;;;17.38;100.00;101673.72;5008540;28;20831;-61
2023/06/22 02:44:14;;;;;;;11.57;8.90;;;;;;;17.33;100.00;101678.00;5008455;28;20386;-62
2023/06/22 02:46:39;;;;;;;11.27;9.55;;;;;;;17.31;100.00;101680.59;5008655;28;20025;-62
2023/06/22 02:49:05;;;;;;;9.82;9.00;;;;;;;17.27;100.00;101677.03;5007964;28;20125;-61
2023/06/22 02:51:36;;;;;;;11.95;10.75;;;;;;;17.26;100.00;101667.44;5008204;28;20359;-62
2023/06/22 02:54:01;;;;;;;9.90;9.00;;;;;;;17.27;100.00;101669.19;5008280;28;20157;-61
2023/06/22 02:56:30;;;;;;;10.98;10.05;;;;;;;17.28;100.00;101676.19;5008171;28;20086;-61
2023/06/22 02:59:01;;;;;;;11.02;9.93;;;;;;;17.28;100.00;101670.06;5008634;28;20021;-61
2023/06/22 03:01:30;;;;;;;;;;;;;;;17.28;100.00;101676.19;5009106;28;20076;-61
2023/06/22 03:03:58;;;;;;;11.88;10.88;;;;;;;17.21;100.00;101671.69;5007947;28;19916;-61
2023/06/22 03:06:28;;;;;;;12.07;10.98;;;;;;;17.14;100.00;101665.44;5008390;28;20052;-61
2023/06/22 03:08:54;;;;;;;11.93;10.82;;;;;;;17.09;100.00;101658.38;5007739;28;20482;-61
2023/06/22 03:11:19;;;;;;;11.43;10.43;;;;;;;17.05;100.00;101646.94;5008322;28;20068;-61
2023/06/22 03:13:46;;;;;;;12.50;11.25;;;;;;;17.00;100.00;101648.59;5007240;28;20055;-61
2023/06/22 03:16:11;;;;;;;13.27;12.07;;;;;;;16.98;100.00;101651.16;5007280;28;20521;-62
2023/06/22 03:18:36;;;;;;;14.75;12.18;;;;;;;16.94;100.00;101646.75;5006745;28;20026;-61
2023/06/22 03:21:02;;;;;;;12.88;11.73;;;;;;;16.93;100.00;101647.59;5007268;28;20398;-61
2023/06/22 03:23:27;;;;;;;13.48;12.05;;;;;;;16.91;100.00;101647.56;5005535;28;20026;-61
2023/06/22 03:25:55;;;;;;;14.00;12.65;;;;;;;16.90;100.00;101640.59;5006657;28;20022;-62
2023/06/22 03:28:21;;;;;;;14.00;12.73;;;;;;;16.89;100.00;101630.94;5006265;28;20021;-61
2023/06/22 03:30:46;;;;;;;13.65;12.48;;;;;;;16.88;100.00;101634.44;5005362;28;20437;-62
2023/06/22 03:33:11;;;;;;;14.82;13.52;;;;;;;16.90;100.00;101637.06;5005338;28;20138;-61
2023/06/22 03:35:37;;;;;;;13.80;12.50;;;;;;;16.91;100.00;101650.19;5005814;28;20676;-61
2023/06/22 03:38:02;;;;;;;13.75;12.40;;;;;;;16.90;100.00;101637.06;5006871;28;20033;-62
2023/06/22 03:40:28;;;;;;;13.48;11.98;;;;;;;16.88;100.00;101634.44;5007038;28;20040;-61
2023/06/22 03:42:53;;;;;;;13.70;12.52;;;;;;;16.88;100.00;101638.78;5007095;28;20092;-61
2023/06/22 03:45:18;;;;;;;14.95;13.50;;;;;;;16.87;100.00;101637.03;5007827;28;20032;-62
2023/06/22 03:47:43;;;;;;;13.95;12.57;;;;;;;16.88;100.00;101639.66;5007614;28;20112;-61
2023/06/22 03:50:09;;;;;;;13.77;12.43;;;;;;;16.88;100.00;101630.91;5007658;28;20470;-61
2023/06/22 03:52:34;;;;;;;14.43;13.13;;;;;;;16.88;100.00;101628.31;5007694;28;20050;-61
2023/06/22 03:55:00;;;;;;;14.68;13.27;;;;;;;16.90;100.00;101627.50;5007828;28;20021;-62
2023/06/22 03:57:25;;;;;;;15.20;13.70;;;;;;;16.90;100.00;101624.88;5007063;28;20026;-61
2023/06/22 03:59:50;;;;;;;15.32;13.82;;;;;;;16.90;100.00;101629.22;5008113;28;20018;-61
2023/06/22 04:02:16;;;;;;;15.63;14.15;;;;;;;16.90;100.00;101630.09;5007529;28;20474;-61
2023/06/22 04:04:41;;;;;;;15.02;13.70;;;;;;;16.91;100.00;101623.13;5007380;28;20053;-61
2023/06/22 04:07:06;;;;;;;16.13;14.65;;;;;;;16.91;100.00;101624.00;5007197;28;20128;-60
2023/06/22 04:09:32;;;;;;;15.80;14.40;;;;;;;16.93;100.00;101626.66;5007717;28;20129;-61
2023/06/22 04:11:57;;;;;;;17.05;14.45;;;;;;;16.96;100.00;101618.88;5007518;28;20030;-61
2023/06/22 04:14:22;;;;;;;15.18;13.88;;;;;;;16.98;100.00;101624.13;5006982;28;20861;-61
2023/06/22 04:16:47;;;;;;;15.13;13.52;;;;;;;17.01;100.00;101622.44;5007801;28;20026;-62
2023/06/22 04:19:16;;;;;;;16.23;14.63;;;;;;;17.04;100.00;101625.13;5007859;28;20351;-62
2023/06/22 04:21:43;;;;;;;14.88;13.48;;;;;;;17.10;100.00;101626.06;5007415;28;20396;-62
2023/06/22 04:24:08;;;;;;;16.67;15.00;;;;;;;17.15;100.00;101627.97;5009027;28;20103;-62
2023/06/22 04:26:36;;;;;;;15.13;13.60;;;;;;;17.21;100.00;101621.94;5011274;28;20121;-62
2023/06/22 04:29:05;;;;;;;16.13;14.60;;;;;;;17.24;100.00;101632.47;5011469;28;20029;-62
2023/06/22 04:31:31;;;;;;;15.05;13.73;;;;;;;17.30;100.00;101630.81;5011532;28;20041;-61
2023/06/22 04:33:57;;;;;;;16.08;14.43;;;;;;;17.32;100.00;101622.13;5011778;28;20018;-62
2023/06/22 04:36:23;;;;;;;16.52;14.82;;;;;;;17.33;100.00;101621.25;5011363;28;20017;-61
2023/06/22 04:38:49;;;;;;;15.48;14.18;;;;;;;17.37;100.00;101637.91;5011300;28;20037;-61
2023/06/22 04:41:23;;;;;;;16.30;14.90;;;;;;;17.40;100.00;101627.47;5011135;28;20104;-63
2023/06/22 04:43:53;;;;;;;14.35;13.05;;;;;;;17.47;100.00;101629.34;5011196;28;20022;-62
2023/06/22 04:46:19;;;;;;;15.40;14.00;;;;;;;17.54;100.00;101630.31;5010911;28;20044;-62
2023/06/22 04:48:44;;;;;;;15.50;14.10;;;;;;;17.61;100.00;101632.16;5010823;28;20273;-62
2023/06/22 04:51:10;;;;;;;16.58;14.43;;;;;;;17.66;100.00;101628.75;5010047;28;20128;-61
2023/06/22 04:53:36;;;;;;;15.95;14.45;;;;;;;17.71;100.00;101633.19;5010817;28;20022;-62
2023/06/22 04:56:04;;;;;;;15.13;13.52;;;;;;;17.76;100.00;101642.00;5010696;28;20083;-63
2023/06/22 04:58:32;;;;;;;16.40;14.65;;;;;;;17.84;100.00;101630.75;5010147;28;20044;-62
2023/06/22 05:00:57;;;;;;;14.48;13.18;;;;;;;17.90;100.00;101630.81;5010666;28;20049;-62
2023/06/22 05:03:26;;;;;;;14.48;12.98;;;;;;;17.96;100.00;101633.53;5010676;28;20041;-62
2023/06/22 05:05:52;;;;;;;16.40;14.90;;;;;;;18.00;100.00;101624.88;5017024;28;20041;-62
2023/06/22 05:08:17;;;;;;;15.35;13.73;;;;;;;18.05;100.00;101629.28;5018092;28;20028;-62
2023/06/22 05:10:43;;;;;;;15.45;13.80;;;;;;;18.08;100.00;101622.34;5020538;28;20408;-62
2023/06/22 05:13:08;;;;;;;18.23;15.88;;;;;;;18.13;100.00;101619.78;5015122;28;20075;-62
2023/06/22 05:15:38;;;;;;;16.00;14.50;;;;;;;18.21;100.00;101623.41;5024590;28;20460;-62
2023/06/22 05:18:05;;;;;;;15.40;13.83;;;;;;;18.28;100.00;101620.84;5015201;28;20041;-62
2023/06/22 05:20:30;;;;;;;16.75;15.07;;;;;;;18.33;100.00;101621.81;5026708;28;20481;-61
2023/06/22 05:22:55;;;;;;;15.38;13.98;;;;;;;18.36;100.00;101627.09;5014179;28;20032;-62
2023/06/22 05:25:21;;;;;;;15.18;13.82;;;;;;;18.41;100.00;101625.41;5010612;28;20026;-62
2023/06/22 05:27:46;;;;;;;15.82;14.30;;;;;;;18.43;100.00;101628.03;5013257;28;20030;-62
2023/06/22 05:30:11;;;;;;;15.27;13.43;;;;;;;18.44;100.00;101630.66;5013330;28;20590;-62
2023/06/22 05:32:37;;;;;;;16.90;15.40;;;;;;;18.46;100.00;101635.94;5017487;28;20029;-62
2023/06/22 05:35:03;;;;;;;17.42;14.65;;;;;;;18.46;100.00;101631.56;5012804;28;20017;-61
2023/06/22 05:37:28;;;;;;;17.05;15.35;;;;;;;18.47;100.00;101628.06;5009925;28;20398;-62
2023/06/22 05:39:55;;;;;;;18.17;16.17;;;;;;;18.50;100.00;101624.63;5010225;28;20037;-62
2023/06/22 05:42:21;;;;;;;20.25;16.52;;;;;;;18.53;100.00;101626.41;5020769;28;20025;-62
2023/06/22 05:44:47;;;;;;;18.10;16.38;;;;;;;18.55;100.00;101622.91;5025324;28;20041;-62
2023/06/22 05:47:12;;;;;;;19.38;17.48;;;;;;;18.59;100.00;101613.34;5017925;28;20080;-62
2023/06/22 05:49:37;;;;;;;17.98;16.38;;;;;;;18.64;100.00;101618.63;5020056;28;20489;-62
2023/06/22 05:52:03;;;;;;;20.23;18.33;;;;;;;18.70;100.00;101619.59;5016312;28;20299;-62
2023/06/22 05:54:28;;;;;;;17.70;16.10;;;;;;;18.79;100.00;101621.44;5017546;28;20079;-61
2023/06/22 05:56:54;;;;;;;19.38;17.50;;;;;;;18.88;100.00;101609.25;5009761;28;20029;-62
2023/06/22 05:59:19;;;;;;;19.27;17.27;;;;;;;18.95;100.00;101611.97;5019203;28;20026;-63
2023/06/22 06:01:45;;;;;;;18.90;17.10;;;;;;;19.02;100.00;101619.88;5009791;28;20017;-63
2023/06/22 06:04:10;;;;;;;19.77;17.88;;;;;;;19.09;100.00;101621.69;5018147;28;20462;-62
2023/06/22 06:06:36;;;;;;;20.00;18.20;;;;;;;19.15;100.00;101623.53;5010755;28;20053;-62
2023/06/22 06:09:04;;;;;;;18.50;16.77;;;;;;;19.21;100.00;101620.97;5015119;28;20029;-61
2023/06/22 06:11:29;;;;;;;18.25;16.55;;;;;;;19.27;100.00;101621.00;5009546;28;20036;-62
2023/06/22 06:13:55;;;;;;;19.08;17.17;;;;;;;19.34;100.00;101624.56;5013558;28;20034;-62
2023/06/22 06:16:20;;;;;;;18.45;16.75;;;;;;;19.40;100.00;101616.72;5010098;28;20049;-61
2023/06/22 06:18:45;;;;;;;19.60;17.70;;;;;;;19.48;100.00;101613.28;5021111;28;20021;-61
2023/06/22 06:21:11;;;;;;;19.17;17.40;;;;;;;19.54;100.00;101611.56;5018510;28;20070;-61
2023/06/22 06:23:36;;;;;;;20.35;18.45;;;;;;;19.61;100.00;101612.47;5008506;28;20020;-62
2023/06/22 06:26:01;;;;;;;18.65;16.98;;;;;;;19.67;100.00;101609.91;5008700;28;20036;-61
2023/06/22 06:28:27;;;;;;;19.00;17.30;;;;;;;19.74;100.00;101618.69;5008788;28;20033;-61
2023/06/22 06:30:52;;;;;;;19.30;17.48;;;;;;;19.80;100.00;101615.25;5009369;28;20033;-61
2023/06/22 06:33:17;;;;;;;19.77;17.90;;;;;;;19.87;100.00;101614.41;5008680;28;20045;-62
2023/06/22 06:35:43;;;;;;;20.20;18.15;;;;;;;19.93;100.00;101616.19;5008641;28;20026;-62
2023/06/22 06:38:08;;;;;;;19.13;17.33;;;;;;;19.98;100.00;101617.09;5008503;28;20028;-61
2023/06/22 06:40:33;;;;;;;20.13;18.27;;;;;;;20.04;100.00;101610.94;5007588;28;20026;-62
2023/06/22 06:42:58;;;;;;;20.75;19.05;;;;;;;20.07;100.00;101616.28;5007932;28;20032;-62
2023/06/22 06:45:25;;;;;;;19.23;17.52;;;;;;;20.11;100.00;101611.91;5008014;28;20030;-62
2023/06/22 06:47:51;;;;;;;22.10;19.92;;;;;;;20.10;100.00;101618.91;5008394;28;20398;-61
2023/06/22 06:50:17;;;;;;;20.95;18.75;;;;;;;20.11;100.00;101611.91;5007609;28;20037;-62
2023/06/22 06:52:43;;;;;;;21.27;19.10;;;;;;;20.12;100.00;101614.56;5008525;28;20032;-62
2023/06/22 06:55:11;;;;;;;17.63;16.10;;;;;;;20.15;100.00;101619.81;5008451;28;20014;-61
2023/06/22 06:57:37;;;;;;;22.05;20.05;;;;;;;20.17;100.00;101617.19;5008380;28;20026;-61
2023/06/22 07:00:09;;;;;;;21.98;19.95;;;;;;;20.17;100.00;101617.19;5008372;28;20100;-62
2023/06/22 07:02:35;;;;;;;20.23;18.35;;;;;;;20.18;100.00;101618.06;4990137;28;20022;-61
2023/06/22 07:05:03;;;;;;;21.25;19.42;;;;;;;20.18;100.00;101615.44;5008158;28;20355;-61
2023/06/22 07:07:28;;;;;;;20.52;18.73;;;;;;;20.20;100.00;101613.72;5008251;28;20393;-61
2023/06/22 07:09:54;;;;;;;19.13;17.38;;;;;;;20.19;100.00;101609.28;5008215;28;20037;-61
2023/06/22 07:12:19;;;;;;;18.50;16.90;;;;;;;20.20;100.00;101605.81;5008185;28;20026;-62
2023/06/22 07:14:44;;;;;;;21.13;19.15;;;;;;;20.22;100.00;101609.34;5007220;28;20557;-62
2023/06/22 07:17:09;;;;;;;21.15;19.15;;;;;;;20.21;100.00;101613.72;5008074;28;20029;-62
2023/06/22 07:19:35;;;;;;;21.88;19.92;;;;;;;20.21;100.00;101607.56;5008043;28;20105;-61
2023/06/22 07:22:00;;;;;;;20.02;18.23;;;;;;;20.22;100.00;101609.34;5008108;28;20025;-62
2023/06/22 07:24:26;;;;;;;20.35;18.60;;;;;;;20.23;100.00;101596.19;5008123;28;20056;-61
2023/06/22 07:26:51;;;;;;;20.45;18.75;;;;;;;20.21;100.00;101597.91;5008062;28;20119;-61
2023/06/22 07:29:17;;;;;;;18.73;16.92;;;;;;;20.25;100.00;101606.69;5008488;28;20444;-61
2023/06/22 07:31:43;;;;;;;22.23;20.13;;;;;;;20.27;100.00;101604.97;5007996;28;20385;-61
2023/06/22 07:34:08;;;;;;;21.80;19.75;;;;;;;20.27;100.00;101608.44;5007821;28;20026;-62
2023/06/22 07:36:35;;;;;;;22.90;20.80;;;;;;;20.28;100.00;101604.06;5007605;28;20540;-61
2023/06/22 07:39:01;;;;;;;22.48;20.55;;;;;;;20.30;100.00;101604.06;5008266;28;20026;-62
2023/06/22 07:41:26;;;;;;;21.85;19.98;;;;;;;20.30;100.00;101596.19;5006782;28;20025;-62
2023/06/22 07:43:51;;;;;;;23.90;21.70;;;;;;;20.33;100.00;101593.59;5007821;28;20025;-62
2023/06/22 07:46:17;;;;;;;21.63;19.52;;;;;;;20.37;100.00;101583.06;5007563;28;20113;-61
2023/06/22 07:48:43;;;;;;;23.23;20.92;;;;;;;20.40;100.00;101577.78;5007611;28;20037;-61
2023/06/22 07:51:09;;;;;;;23.45;21.25;;;;;;;20.45;100.00;101574.31;5007514;28;20378;-62
2023/06/22 07:53:35;;;;;;;21.88;19.92;;;;;;;20.52;100.00;101570.81;5007347;28;20029;-61
2023/06/22 07:56:01;;;;;;;23.63;21.52;;;;;;;20.60;100.00;101563.81;5007715;28;20108;-62
2023/06/22 07:58:26;;;;;;;21.02;19.15;;;;;;;20.70;100.00;101550.66;5009101;28;20111;-62
2023/06/22 08:00:51;;;;;;;24.60;22.30;;;;;;;20.79;100.00;101541.88;5013824;28;20038;-61
2023/06/22 08:03:17;;;;;;;21.70;19.85;;;;;;;20.90;100.00;101541.88;5014093;28;20029;-62
2023/06/22 08:05:42;;;;;;;23.73;21.63;;;;;;;20.98;100.00;101533.13;5013472;28;20530;-62
2023/06/22 08:08:07;;;;;;;21.83;19.92;;;;;;;21.06;100.00;101530.50;5013984;28;20036;-62
2023/06/22 08:10:32;;;;;;;22.05;20.05;;;;;;;21.13;100.00;101519.94;5013894;28;20022;-62
2023/06/22 08:12:58;;;;;;;22.58;20.55;;;;;;;21.19;100.00;101517.31;5014400;28;20033;-62
2023/06/22 08:15:26;;;;;;;21.33;19.40;;;;;;;21.24;100.00;101508.50;5013123;28;20042;-62
2023/06/22 08:17:52;;;;;;;21.08;19.20;;;;;;;21.27;100.00;101512.88;5013743;28;20026;-62
2023/06/22 08:20:17;;;;;;;20.60;18.70;;;;;;;21.29;100.00;101504.97;5013899;28;20127;-62
2023/06/22 08:22:43;;;;;;;20.38;18.58;;;;;;;21.30;100.00;101510.25;5013661;28;20065;-62
2023/06/22 08:25:10;;;;;;;19.27;17.58;;;;;;;21.33;100.00;101506.72;5012966;28;20026;-61
2023/06/22 08:27:36;;;;;;;20.40;18.58;;;;;;;21.37;100.00;101507.59;5013742;28;20030;-62
2023/06/22 08:30:02;;;;;;;18.77;16.85;;;;;;;21.40;100.00;101504.94;5013749;28;20026;-62
2023/06/22 08:32:28;;;;;;;19.70;17.85;;;;;;;21.43;100.00;101503.19;5013764;28;20040;-61
2023/06/22 08:34:57;;;;;;;17.40;15.77;;;;;;;21.46;100.00;101502.31;5013688;28;20010;-61
2023/06/22 08:37:30;;;;;;;16.95;15.45;;;;;;;21.51;100.00;101495.25;5013039;28;20037;-62
2023/06/22 08:40:00;;;;;;;17.80;16.05;;;;;;;21.53;100.00;101508.44;5013611;28;20029;-62
2023/06/22 08:42:27;;;;;;;17.75;16.00;;;;;;;21.56;100.00;101514.56;5013556;28;20056;-62
2023/06/22 08:44:53;;;;;;;17.08;15.57;;;;;;;21.56;100.00;101511.06;5014049;28;20374;-62
2023/06/22 08:47:20;;;;;;;17.75;16.00;;;;;;;21.56;100.00;101497.88;5013666;28;20100;-62
2023/06/22 08:49:45;;;;;;;18.23;16.63;;;;;;;21.57;100.00;101497.84;5013235;28;20444;-62
2023/06/22 08:52:10;;;;;;;16.58;14.95;;;;;;;21.57;100.00;101495.22;5013864;28;20029;-62
2023/06/22 08:54:36;;;;;;;16.63;15.02;;;;;;;21.59;100.00;101488.19;5013715;28;20113;-62
2023/06/22 08:57:02;;;;;;;14.73;13.35;;;;;;;21.62;100.00;101492.59;5013444;28;20026;-62
2023/06/22 08:59:28;;;;;;;17.45;15.88;;;;;;;21.63;100.00;101491.69;5013482;28;20525;-62
2023/06/22 09:01:53;;;;;;;15.95;14.32;;;;;;;21.66;100.00;101488.19;5013195;28;20022;-62
2023/06/22 09:04:18;;;;;;;14.65;13.35;;;;;;;21.67;100.00;101488.16;5013604;28;20040;-62
2023/06/22 09:06:45;;;;;;;13.65;12.35;;;;;;;21.68;100.00;101486.38;4995284;28;20113;-62
2023/06/22 09:09:12;;;;;;;15.85;14.45;;;;;;;21.69;100.00;101486.41;5013627;28;20034;-62
2023/06/22 09:11:37;;;;;;;14.55;13.32;;;;;;;21.70;100.00;101484.63;4991639;28;20352;-62
2023/06/22 09:14:03;;;;;;;14.43;13.20;;;;;;;21.72;100.00;101482.84;5010702;28;20372;-62
2023/06/22 09:16:29;;;;;;;13.43;12.13;;;;;;;21.74;100.00;101483.72;5010526;28;20022;-62
2023/06/22 09:18:54;;;;;;;14.10;12.93;;;;;;;21.77;100.00;101478.44;5011151;28;20053;-61
2023/06/22 09:21:19;;;;;;;13.75;12.23;;;;;;;21.78;100.00;101474.94;4992554;28;20072;-62
2023/06/22 09:23:46;;;;;;;12.68;11.57;;;;;;;21.82;100.00;101476.69;5010403;28;20565;-62
2023/06/22 09:26:12;;;;;;;12.82;11.63;;;;;;;21.86;100.00;101479.31;5010210;28;20112;-62
2023/06/22 09:28:37;;;;;;;13.13;11.93;;;;;;;21.89;100.00;101474.88;5009777;28;20501;-62
2023/06/22 09:31:03;;;;;;;12.63;11.32;;;;;;;21.90;98.84;101476.66;5009796;28;20022;-62
2023/06/22 09:33:28;;;;;;;13.68;12.27;;;;;;;21.94;99.67;101474.88;5010225;28;20021;-62
2023/06/22 09:35:53;;;;;;;11.77;10.77;;;;;;;21.95;99.76;101484.53;5009971;28;20054;-62
2023/06/22 09:38:18;;;;;;;11.52;10.43;;;;;;;21.97;99.83;101477.50;4997271;28;20054;-62
2023/06/22 09:40:44;;;;;;;11.55;10.40;;;;;;;21.97;98.09;101482.75;5009341;28;20486;-62
2023/06/22 09:43:09;;;;;;;11.98;10.77;;;;;;;21.97;98.83;101477.50;5009614;28;20474;-62
2023/06/22 09:45:34;;;;;;;14.63;12.00;;;;;;;21.95;97.83;101477.50;5009958;28;20021;-62
2023/06/22 09:48:00;;;;;;;10.93;9.82;;;;;;;21.96;98.04;101470.47;5009441;28;20040;-62
2023/06/22 09:50:25;;;;;;;12.70;11.45;;;;;;;21.94;97.45;101472.25;5009738;28;20028;-62
2023/06/22 09:52:54;;;;;;;11.75;10.55;;;;;;;21.93;96.89;101465.19;5008844;28;20076;-62
2023/06/22 09:55:22;;;;;;;11.80;10.68;;;;;;;21.94;97.10;101466.97;5010217;28;20473;-61
2023/06/22 09:57:48;;;;;;;10.27;9.38;;;;;;;21.94;97.64;101461.69;5009481;28;20022;-62
2023/06/22 10:00:15;;;;;;;14.00;11.68;;;;;;;21.94;98.62;101459.94;5009862;28;20018;-62
2023/06/22 10:02:44;;;;;;;11.55;10.55;;;;;;;21.96;98.42;101465.19;5009068;28;20386;-62
2023/06/22 10:05:09;;;;;;;10.68;9.68;;;;;;;21.95;97.06;101458.16;5009504;28;20029;-61
2023/06/22 10:07:39;;;;;;;10.77;9.80;;;;;;;21.96;97.38;101459.91;5009560;28;20225;-62
2023/06/22 10:10:05;;;;;;;10.60;9.73;;;;;;;21.98;97.48;101467.81;5009492;28;20473;-62
2023/06/22 10:12:31;;;;;;;11.90;10.73;;;;;;;22.00;97.17;101464.28;5009591;28;20621;-62
2023/06/22 10:14:56;;;;;;;13.35;10.98;;;;;;;22.03;98.57;101463.38;5008253;28;20053;-61
2023/06/22 10:17:21;;;;;;;11.15;10.02;;;;;;;22.04;98.37;101462.50;5009268;28;20072;-62
2023/06/22 10:19:46;;;;;;;12.13;11.05;;;;;;;22.06;98.19;101458.97;5008987;28;20026;-62
2023/06/22 10:22:12;;;;;;;12.13;11.10;;;;;;;22.09;98.79;101462.47;5009002;28;20021;-62
2023/06/22 10:24:44;;;;;;;11.50;10.40;;;;;;;22.10;98.88;101451.03;5008315;28;20446;-62
2023/06/22 10:27:09;;;;;;;10.65;9.65;;;;;;;22.15;98.89;101459.78;5009562;28;20117;-62
2023/06/22 10:29:34;;;;;;;10.43;9.45;;;;;;;22.18;98.63;101459.78;5008786;28;20132;-62
2023/06/22 10:32:00;;;;;;;12.48;11.15;;;;;;;22.19;97.55;101462.41;5009562;28;20537;-62
2023/06/22 10:34:25;;;;;;;11.50;10.45;;;;;;;22.24;97.38;101465.00;5008296;28;20076;-62
2023/06/22 10:36:50;;;;;;;11.30;10.30;;;;;;;22.26;96.44;101471.16;5009163;28;20381;-62
2023/06/22 10:39:15;;;;;;;11.02;10.00;;;;;;;22.27;98.01;101469.41;5008458;28;20025;-62
2023/06/22 10:41:41;;;;;;;10.40;9.50;;;;;;;22.27;97.52;101475.53;5008407;28;20100;-62
2023/06/22 10:44:06;;;;;;;11.75;10.75;;;;;;;22.27;98.18;101486.09;5008826;28;20363;-62
2023/06/22 10:46:31;;;;;;;12.07;10.98;;;;;;;22.27;97.96;101487.88;5008893;28;20353;-61
2023/06/22 10:48:58;;;;;;;12.73;11.52;;;;;;;22.26;100.00;101489.63;5007794;28;20285;-62
2023/06/22 10:51:24;;;;;;;12.75;11.50;;;;;;;22.26;100.00;101504.56;5008691;28;20022;-62
2023/06/22 11:58:29;;;;;;;33.53;30.42;;;;;;;20.01;100.00;101458.41;4195364;28;20056;-62
2023/06/22 12:00:55;;;;;;;34.95;31.80;;;;;;;19.95;100.00;101461.03;5007136;28;20038;-62
2023/06/22 12:03:23;;;;;;;36.67;33.25;;;;;;;19.88;100.00;101458.38;5007551;28;20390;-62
2023/06/22 12:05:51;;;;;;;37.53;34.28;;;;;;;19.87;100.00;101459.25;5007684;28;20033;-61
2023/06/22 12:08:16;;;;;;;36.92;33.47;;;;;;;19.88;100.00;101447.84;5007246;28;20100;-61
2023/06/22 12:10:41;;;;;;;37.70;34.53;;;;;;;19.89;100.00;101454.00;5008722;28;20038;-61